Port Moresby Jacksons International Airport

AYPY · National Capital, 巴布亚新几内亚

2022年10月4日

时间 代码 天气 温度 能见度 天花板 METAR/SPECI
06:00
V
25 °C 10 km+ 3.000 ft Var Var 3 kt METAR AYPY 032000Z VRB03KT 9999 OVC030 25/24 Q1008=
04:00
V
25 °C 10 km+ - Var Var 3 kt METAR AYPY 031800Z VRB03KT 9999 SCT030 25/24 Q1007=
03:00
V
24 °C 10 km+ - 320° 320° 5 kt METAR AYPY 031700Z 32005KT 9999 FEW100 24/24 Q1007
02:00
V
25 °C 10 km+ - 320° 320° 5 kt METAR AYPY 031600Z 32005KT 9999 FEW080 25/24 Q1007
01:00
V
25 °C 10 km+ - Var Var 2 kt METAR AYPY 031500Z VRB02KT 9999 FEW070 25/24 Q1007
00:00
V
25 °C 10 km+ - Var Var 3 kt METAR AYPY 031400Z VRB03KT 9999 SCT100 25/24 Q1008

2022年10月3日

时间 代码 天气 温度 能见度 天花板 METAR/SPECI
23:00
V
25 °C 10 km+ - Var Var 4 kt METAR AYPY 031300Z VRB04KT 9999 SCT100 25/24 Q1008
22:00
V
26 °C 10 km+ - Var Var 4 kt METAR AYPY 031200Z VRB04KT 9999 SCT100 26/24 Q1008
21:00
V
25 °C 10 km+ - Var Var 4 kt METAR AYPY 031100Z VRB04KT 9999 SCT100 25/24 Q1008
20:00
V
27 °C 10 km+ - Var Var 4 kt METAR AYPY 031000Z VRB04KT 9999 SCT100 27/24 Q1008
19:00
V
26 °C 10 km+ 4.000 ft 110° 110° 7 kt METAR AYPY 030900Z 11007KT 9999 FEW015 BKN040 26/24 Q1007
18:00
V
28 °C 10 km+ 4.000 ft 140° 140° 15 kt METAR AYPY 030800Z 14015KT 9999 FUHZ SCT030 BKN040 28/26 Q1007 RMK/ SH IN AREA
17:00
V
30 °C 10 km+ 5.000 ft 140° 140° 15 kt METAR AYPY 030700Z 14015KT 9999 FU HZ SCT030 BKN050 30/25 Q1005 RMK
16:00
V
30 °C 10 km+ - 140° 140° 15 kt METAR AYPY 030600Z 14015KT 9999 FUHZ SCT030 SCT050 30/26 Q1005 RMK/CB ASSOCIATED WITH SHRA TO E
15:00
V
33 °C 10 km+ - 160° 160° 15 kt METAR AYPY 030500Z 16015KT 9999 HZ SCT030 33/25 Q1005
14:00
V
32 °C 10 km+ - 160° 160° 15 kt METAR AYPY 030400Z 16015KT 9999 HZ FEW020 SCT030 32/25 Q1006
13:00
V
33 °C 10 km+ - 160° 160° 15 kt METAR AYPY 030300Z 16015KT 9999 HZ FEW020 SCT030 33/25 Q1006
12:00
V
32 °C 10 km+ - 160° 160° 15 kt METAR AYPY 030200Z 16015KT 9999 HZ SCT030 32/25 Q1007=
11:00
V
32 °C 10 km+ - 150° 150° 10 kt METAR AYPY 030100Z 15010KT 9999 HZ SCT030 32/25 Q1008
10:00
V
33 °C 10 km+ - 170° 170° 6 kt METAR AYPY 030000Z 17006KT 9999 HZ SCT030 33/25 Q1009
09:00
V
30 °C 10 km+ - Var Var 3 kt METAR AYPY 022300Z VRB03KT 9999 HZ FEW035 30/24 Q1009
08:00
V
28 °C 10 km+ - Var Var 4 kt METAR AYPY 022200Z VRB04KT 9999 HZ FEW040 28/24 Q1009
07:00
V
25 °C 10 km+ - Var Var 3 kt METAR AYPY 022100Z VRB03KT 9999 HZ SCT060 25/24 Q1009
06:00
V
25 °C 10 km+ - 340° 340° 6 kt METAR AYPY 022000Z 34006KT 9999 SCT050 25/24 Q1009
05:00
V
25 °C 10 km+ - 320° 320° 5 kt METAR AYPY 021900Z 32005KT 9999 FEW030 SCT050 25/24 Q1008
04:00
V
24 °C 10 km+ - 330° 330° 5 kt METAR AYPY 021800Z 33005KT 9999 FEW050 24/24 Q1008
03:00
V
25 °C 10 km+ - 320° 320° 4 kt METAR AYPY 021700Z 32004KT 9999 FEW050 25/24 Q1007
02:00
V
25 °C 10 km+ - 130° 130° 5 kt METAR AYPY 021600Z 13005KT 9999 FEW050 25/24 Q1007
01:00
V
25 °C 10 km+ - 150° 150° 6 kt METAR AYPY 021500Z 15006KT 9999 FEW050 25/24 Q1008
00:00
V
26 °C 10 km+ - 130° 130° 5 kt METAR AYPY 021400Z 13005KT 9999 FEW050 26/24 Q1008=

2022年10月2日

时间 代码 天气 温度 能见度 天花板 METAR/SPECI
23:00
V
26 °C 10 km+ - 140° 140° 3 kt METAR AYPY 021300Z 14003KT 9999 HZ SCT100 26/24 Q1009
21:00
V
27 °C 10 km+ - 140° 140° 6 kt METAR AYPY 021100Z 14006KT 9999 FEW030 SCT050 27/24 Q1009
20:00
V
28 °C 10 km+ - 130° 130° 8 kt METAR AYPY 021000Z 13008KT 9999 FEW030 SCT050 28/25 Q1008
19:00
V
28 °C 10 km+ - 150° 150° 10 kt METAR AYPY 020900Z 15010KT 9999 SCT040 SCT060 28/25 Q1008
17:00
V
29 °C 10 km+ - 140° 140° 15 - 20 kt METAR AYPY 020700Z 14015G20KT 9999 FEW040 SCT130 29/25 Q1006
15:00
V
31 °C 10 km+ - 150° 150° 10 - 15 kt METAR AYPY 020500Z 15010G15KT 9999 HZ SCT030 31/24 Q1005 RMK
14:00
V
32 °C 10 km+ - 160° 160° 10 - 15 kt METAR AYPY 020400Z 16010G15KT 9999 HZ SCT030 32/24 Q1006 RMK
13:00
V
32 °C 10 km+ - 200° 200° 10 - 17 kt METAR AYPY 020300Z 20010G17KT 9999 HZ SCT030 SCT040 32/25 Q1006 RMK/CB TO NW/ N AND E
12:00
V
32 °C 10 km+ - 200° 200° 15 kt METAR AYPY 020200Z 20015KT 9999 HZ SCT030 32/25 Q1007 RMK/CB FM NW TO E
11:00
V
31 °C 10 km+ - 140° 140° 10 kt METAR AYPY 020100Z 14010KT 9999 HZ SCT025 31/25 Q1008 RMK/CB TO NW
10:00
V
30 °C 10 km+ - 340° 340° 8 kt METAR AYPY 020000Z 34008KT 9999 HZ FEW015 SCT025 30/24 Q1009 RMK
09:00
V
30 °C 10 km+ - 350° 350° 8 kt METAR AYPY 012300Z 35008KT 9999 HZ FEW015 SCT030 30/24 Q1009 RMK
08:00
V
28 °C 10 km+ - 340° 340° 8 kt METAR AYPY 012200Z 34008KT 9999 HZ FEW015 SCT030 28/24 Q1009 RMKS/ CB TO W
07:00
V
27 °C 10 km+ - Var Var 5 kt METAR AYPY 012100Z VRB05KT 9999 HZ FEW010 SCT030 27/24 Q1009 RMK
06:00
V
25 °C 10 km+ - Var Var 3 kt METAR AYPY 012000Z VRB03KT 9999 HZ FEW010 SCT035 25/24 Q1008 RMK/ CB TO W
05:00
V
25 °C 10 km+ - Var Var 4 kt METAR AYPY 011900Z VRB04KT 9999 FEW010 SCT030 25/24 Q1008
04:00
V
25 °C 10 km+ - Var Var 3 kt METAR AYPY 011800Z VRB03KT 9999 FEW010 SCT025 25/24 Q1007
03:00
V
25 °C 10 km+ - Var Var 3 kt METAR AYPY 011700Z VRB03KT 9999 SCT100 25/24 Q1007
02:00
V
26 °C 10 km+ - 120° 120° 5 kt METAR AYPY 011600Z 12005KT 9999 SCT030 26/24 Q1007
01:00
V
26 °C 10 km+ - 140° 140° 10 kt METAR AYPY 011500Z 14010KT 9999 SCT030 26/24 Q1008
较旧的数据

我们和第三方通过cookies跟踪您在我们网站上的上网行为。如果您继续,我们认为您同意我们的cookie政策。 了解更多